Chennai, India

4:49 AM IST on August 25, 2016 (GMT +0530)
Chennai International | | Change Station

Elev 52 ft 12.99 °N, 80.18 °E | Updated 19 minutes ago

Partly Cloudy
Partly Cloudy
82 °F
Feels Like 91 °F
N
12
Wind Variable Wind from SSW

Today
High -- | Low -- °F
--% Chance of Precip.
Yesterday
High -- | Low -- °F
Precip. -- in
Pressure 29.62 in
Visibility 3.7 miles
Clouds Scattered Clouds 1800 ft
Few 2500 ft
Heat Index 91 °F
Dew Point 77 °F
Humidity 84%
Rainfall 0.00 in
Snow Depth Not available.
5:57 AM 6:24 PM
Waning Gibbous, 52% visible
METAR VOMM 242300Z 20010KT 6000 SCT018 FEW025CB 28/25 Q1003 TEMPO 4000 -DZ
Pressure 29.62 in
Visibility 3.7 miles
Clouds Scattered Clouds 1800 ft
Few 2500 ft
Heat Index 91 °F
Dew Point 77 °F
Humidity 84%
Rainfall 0.00 in
Snow Depth Not available.
5:57 AM 6:24 PM
Waning Gibbous, 52% visible
METAR VOMM 242300Z 20010KT 6000 SCT018 FEW025CB 28/25 Q1003 TEMPO 4000 -DZ

10-Day Weather Forecast

No radar image for this location.
×

Almanac

Astronomy

Aug. 25, 2016 Rise Set
Actual Time
Civil Twilight
Nautical Twilight
Astronomical Twilight
Moon
Length of Visible Light
Length of Day
Tomorrow will be .
, % of the Moon is Illuminated

Today's Extremes

Country Highs Country Lows

Community

WunderPhotos

Upload Photos

1,934,731 photos uploaded!

WunderBlog® & News

Nearby

Air Quality

  Air Quality AQ Index Pollutant
Not available.

Snow Depth

Station Depth Elevation

Earthquake Activity

City Distance Mag. Time & Date
Minimum magnitude displayed is 2.5.

Coastal Water Temperatures

Place Temperature

Stations

Nearby Weather Stations

Station Location Temp. Windchill Dew Point Humidity Wind Precip. Elev Updated Type